Time;durP1;ratioP1;P1;durP2;ratioP2;P2;SDS_P1;SDS_P2;PMS_P1;PMS_P2;Temp;Humidity;BMP_temperature;BMP_pressure;BME280_temperature;BME280_humidity;BME280_pressure;Samples;Min_cycle;Max_cycle;Signal;HPM_P1;HPM_P2
2023/11/23 00:00:31;;;;;;;23.45;14.35;;;0.50;99.90;;;;;;5060351;28;20087;-90
2023/11/23 00:02:57;;;;;;;21.67;14.05;;;0.60;99.90;;;;;;5045898;28;20028;-91
2023/11/23 00:05:24;;;;;;;22.35;13.27;;;0.60;99.90;;;;;;5037135;28;20068;-92
2023/11/23 00:07:53;;;;;;;23.17;15.48;;;0.60;99.90;;;;;;5031866;28;20028;-91
2023/11/23 00:10:18;;;;;;;26.05;15.43;;;0.60;99.90;;;;;;5064345;28;20039;-92
2023/11/23 00:12:44;;;;;;;22.23;14.60;;;0.60;99.90;;;;;;5037974;28;20045;-91
2023/11/23 00:15:10;;;;;;;21.35;14.80;;;0.60;99.90;;;;;;5059198;28;20029;-92
2023/11/23 00:17:36;;;;;;;24.02;14.32;;;0.70;99.90;;;;;;5045991;28;20506;-92
2023/11/23 00:20:09;;;;;;;24.80;15.35;;;0.70;99.90;;;;;;5045449;28;20028;-90
2023/11/23 00:22:35;;;;;;;21.20;14.98;;;0.70;99.90;;;;;;5052385;28;20022;-92
2023/11/23 00:25:03;;;;;;;20.88;13.52;;;0.70;99.90;;;;;;5057691;28;20108;-91
2023/11/23 00:27:28;;;;;;;22.50;14.88;;;0.60;99.90;;;;;;5063058;28;20025;-93
2023/11/23 00:29:54;;;;;;;21.98;15.60;;;0.70;99.90;;;;;;5062714;28;20032;-91
2023/11/23 00:32:20;;;;;;;22.52;15.15;;;0.70;99.90;;;;;;5034949;28;20108;-91
2023/11/23 00:34:50;;;;;;;25.15;14.45;;;0.70;99.90;;;;;;5042986;28;20068;-92
2023/11/23 00:37:16;;;;;;;24.98;14.93;;;0.70;99.90;;;;;;5059760;28;20021;-90
2023/11/23 00:39:42;;;;;;;20.65;14.07;;;0.80;99.90;;;;;;5045060;28;20108;-93
2023/11/23 00:42:11;;;;;;;22.13;14.43;;;0.80;99.90;;;;;;5063945;28;20021;-91
2023/11/23 00:44:37;;;;;;;18.65;12.35;;;0.80;99.90;;;;;;5045956;28;20046;-91
2023/11/23 00:47:03;;;;;;;21.50;13.45;;;0.80;99.90;;;;;;5063610;28;20027;-91
2023/11/23 00:49:29;;;;;;;24.30;15.13;;;0.80;99.90;;;;;;5063451;28;20040;-91
2023/11/23 00:51:55;;;;;;;19.38;14.00;;;0.80;99.90;;;;;;5062896;28;20018;-91
2023/11/23 00:54:21;;;;;;;24.15;13.40;;;0.90;99.90;;;;;;5062399;28;20422;-93
2023/11/23 00:56:47;;;;;;;21.45;12.77;;;0.90;99.90;;;;;;5062463;28;20017;-91
2023/11/23 00:59:13;;;;;;;18.83;13.10;;;0.90;99.90;;;;;;5044537;28;20787;-90
2023/11/23 01:01:39;;;;;;;20.75;13.27;;;0.90;99.90;;;;;;5044116;28;20036;-93
2023/11/23 01:04:05;;;;;;;20.90;13.23;;;0.90;99.90;;;;;;5061629;28;20032;-91
2023/11/23 01:06:33;;;;;;;16.75;12.15;;;1.00;99.90;;;;;;5061469;28;20025;-92
2023/11/23 01:08:59;;;;;;;20.95;13.68;;;1.00;99.90;;;;;;5044945;28;20032;-90
2023/11/23 01:11:26;;;;;;;17.33;11.90;;;1.00;99.90;;;;;;5061350;28;20540;-92
2023/11/23 01:13:52;;;;;;;21.27;12.85;;;1.00;99.90;;;;;;5060849;28;20033;-92
2023/11/23 01:16:17;;;;;;;17.90;11.65;;;1.10;99.90;;;;;;5043039;28;20129;-93
2023/11/23 01:18:43;;;;;;;19.98;13.63;;;1.10;99.90;;;;;;5042865;28;20025;-88
2023/11/23 01:21:09;;;;;;;15.75;12.63;;;1.10;99.90;;;;;;5060211;28;20513;-91
2023/11/23 01:23:35;;;;;;;17.05;11.35;;;1.10;99.90;;;;;;5060967;28;20104;-93
2023/11/23 01:26:00;;;;;;;21.30;14.07;;;1.10;99.90;;;;;;5034678;28;20212;-92
2023/11/23 01:28:26;;;;;;;18.98;13.00;;;1.00;99.90;;;;;;5044092;28;20040;-91
2023/11/23 01:30:52;;;;;;;19.65;12.88;;;1.10;99.90;;;;;;5060195;28;20048;-92
2023/11/23 01:33:17;;;;;;;19.40;12.65;;;1.20;99.90;;;;;;5045885;28;20029;-93
2023/11/23 01:35:44;;;;;;;22.17;14.20;;;1.10;99.90;;;;;;5028465;28;20523;-90
2023/11/23 01:38:10;;;;;;;19.58;12.95;;;1.10;99.90;;;;;;5031225;28;20040;-92
2023/11/23 01:40:35;;;;;;;20.73;13.82;;;1.10;99.90;;;;;;5061239;28;20033;-93
2023/11/23 01:43:05;;;;;;;18.80;13.77;;;1.10;99.90;;;;;;5044021;28;20032;-92
2023/11/23 01:45:31;;;;;;;18.08;13.90;;;1.10;99.90;;;;;;5061470;28;20078;-90
2023/11/23 01:47:57;;;;;;;15.07;11.60;;;1.10;99.90;;;;;;5043450;28;20128;-91
2023/11/23 01:50:25;;;;;;;19.95;12.73;;;1.10;99.90;;;;;;5061070;28;20054;-91
2023/11/23 01:52:51;;;;;;;;;;;1.10;99.90;;;;;;5043773;28;20092;-90
2023/11/23 01:55:17;;;;;;;20.10;12.80;;;1.00;99.90;;;;;;5060703;28;19931;-92
2023/11/23 01:57:45;;;;;;;19.20;13.55;;;1.00;99.90;;;;;;5061409;28;20023;-92
2023/11/23 02:00:13;;;;;;;19.38;12.18;;;1.00;99.90;;;;;;5062532;28;20029;-93
2023/11/23 02:02:41;;;;;;;22.35;12.95;;;1.00;99.90;;;;;;5041941;28;20029;-92
2023/11/23 02:05:09;;;;;;;18.90;12.95;;;1.00;99.90;;;;;;5060623;28;20032;-92
2023/11/23 02:07:35;;;;;;;19.05;12.20;;;0.90;99.90;;;;;;5042776;28;20029;-92
2023/11/23 02:10:01;;;;;;;21.75;13.65;;;0.90;99.90;;;;;;5042365;28;20101;-94
2023/11/23 02:12:28;;;;;;;20.75;13.88;;;0.80;99.90;;;;;;5061014;28;20074;-91
2023/11/23 02:14:54;;;;;;;19.08;13.18;;;0.80;99.90;;;;;;5042798;28;20029;-90
2023/11/23 02:17:21;;;;;;;21.63;12.95;;;0.80;99.90;;;;;;5060245;28;20037;-91
2023/11/23 02:19:48;;;;;;;19.50;14.15;;;0.80;99.90;;;;;;5042374;28;20025;-93
2023/11/23 02:22:15;;;;;;;21.58;12.73;;;0.70;99.90;;;;;;5041819;28;20025;-93
2023/11/23 02:24:43;;;;;;;18.30;12.93;;;0.70;99.90;;;;;;5049995;28;20021;-92
2023/11/23 02:27:09;;;;;;;21.55;14.32;;;0.70;99.90;;;;;;5037454;28;20027;-92
2023/11/23 02:29:36;;;;;;;24.00;14.85;;;0.70;99.90;;;;;;5060657;28;20075;-91
2023/11/23 02:32:06;;;;;;;19.52;12.55;;;0.60;99.90;;;;;;5042681;28;20017;-90
2023/11/23 02:34:35;;;;;;;19.48;14.75;;;0.70;99.90;;;;;;5037956;28;20125;-92
2023/11/23 02:37:01;;;;;;;22.20;13.48;;;0.60;99.90;;;;;;5027552;28;20399;-91
2023/11/23 02:39:27;;;;;;;19.33;13.10;;;0.60;99.90;;;;;;5031890;28;20135;-91
2023/11/23 02:41:54;;;;;;;25.13;14.50;;;0.60;99.90;;;;;;5059216;28;20364;-92
2023/11/23 02:44:20;;;;;;;21.77;13.60;;;0.50;99.90;;;;;;5059676;28;20032;-92
2023/11/23 02:46:46;;;;;;;20.70;13.88;;;0.50;99.90;;;;;;5035937;28;20392;-92
2023/11/23 02:49:12;;;;;;;22.98;13.73;;;0.60;99.90;;;;;;5021233;28;20021;-92
2023/11/23 02:51:37;;;;;;;20.55;13.20;;;0.60;99.90;;;;;;5050754;28;20210;-94
2023/11/23 02:54:04;;;;;;;22.42;14.50;;;0.50;99.90;;;;;;5046074;28;20032;-90
2023/11/23 02:56:29;;;;;;;26.23;14.60;;;0.60;99.90;;;;;;5060564;28;20055;-92
2023/11/23 02:58:55;;;;;;;23.13;13.65;;;0.60;99.90;;;;;;5055423;28;20474;-92
2023/11/23 03:01:21;;;;;;;24.17;14.48;;;0.60;99.90;;;;;;5059825;28;20071;-91
2023/11/23 03:03:49;;;;;;;23.48;15.57;;;0.60;99.90;;;;;;5055154;28;20026;-92
2023/11/23 03:06:15;;;;;;;23.58;15.20;;;0.60;99.90;;;;;;5047602;28;20369;-92
2023/11/23 03:08:40;;;;;;;21.83;15.18;;;0.50;99.90;;;;;;5058900;28;20033;-92
2023/11/23 03:11:06;;;;;;;21.38;13.55;;;0.60;99.90;;;;;;5050880;28;20025;-93
2023/11/23 03:13:32;;;;;;;21.77;13.95;;;0.60;99.90;;;;;;5039571;28;20475;-91
2023/11/23 03:15:58;;;;;;;23.48;15.60;;;0.50;99.90;;;;;;5057695;28;20025;-91
2023/11/23 03:18:23;;;;;;;18.40;12.90;;;0.50;99.90;;;;;;5039857;28;20378;-93
2023/11/23 03:20:49;;;;;;;21.27;13.63;;;0.50;99.90;;;;;;5035005;28;20037;-92
2023/11/23 03:23:15;;;;;;;20.45;14.38;;;0.50;99.90;;;;;;5040771;28;20024;-91
2023/11/23 03:25:40;;;;;;;23.17;14.45;;;0.50;99.90;;;;;;5040504;28;20029;-91
2023/11/23 03:28:07;;;;;;;25.73;13.93;;;0.50;99.90;;;;;;5058970;28;20368;-92
2023/11/23 03:30:35;;;;;;;19.75;12.98;;;0.40;99.90;;;;;;5040292;28;20021;-93
2023/11/23 03:33:04;;;;;;;19.02;13.50;;;0.50;99.90;;;;;;5057740;28;20071;-92
2023/11/23 03:35:29;;;;;;;;;;;0.40;99.90;;;;;;5040597;28;20036;-94
2023/11/23 03:37:55;;;;;;;21.42;11.68;;;0.40;99.90;;;;;;5061797;28;20003;-92
2023/11/23 03:40:20;;;;;;;21.23;13.10;;;0.40;99.90;;;;;;5044061;28;20033;-90
2023/11/23 03:42:46;;;;;;;19.88;13.45;;;0.40;99.90;;;;;;5061277;28;20047;-91
2023/11/23 03:45:23;;;;;;;22.80;13.25;;;0.40;99.90;;;;;;5061230;28;20044;-93
2023/11/23 03:47:49;;;;;;;24.98;13.20;;;0.40;99.90;;;;;;5055782;28;20021;-92
2023/11/23 03:50:15;;;;;;;20.88;12.07;;;0.40;99.90;;;;;;5060764;28;20082;-93
2023/11/23 03:52:41;;;;;;;25.05;15.38;;;0.30;99.90;;;;;;5062728;28;20021;-90
2023/11/23 03:55:08;;;;;;;20.88;13.52;;;0.30;99.90;;;;;;5044531;28;20456;-91
2023/11/23 03:57:34;;;;;;;23.23;14.00;;;0.30;99.90;;;;;;5043887;28;20032;-93
2023/11/23 04:00:00;;;;;;;21.50;13.48;;;0.30;99.90;;;;;;5043701;28;20047;-91
2023/11/23 04:02:26;;;;;;;23.45;14.68;;;0.30;99.90;;;;;;5061511;28;20403;-89
2023/11/23 04:04:52;;;;;;;20.55;13.98;;;0.30;99.90;;;;;;5061283;28;20493;-92
2023/11/23 04:07:18;;;;;;;23.33;14.73;;;0.20;99.90;;;;;;5044348;28;20032;-92
2023/11/23 04:09:43;;;;;;;23.05;14.18;;;0.30;99.90;;;;;;5042893;28;20082;-91
2023/11/23 04:12:09;;;;;;;22.33;13.82;;;0.20;99.90;;;;;;5042871;28;20403;-92
2023/11/23 04:14:35;;;;;;;20.73;14.23;;;0.20;99.90;;;;;;5061018;28;20029;-91
2023/11/23 04:17:01;;;;;;;20.75;13.50;;;0.10;99.90;;;;;;5043229;28;20024;-92
2023/11/23 04:19:26;;;;;;;24.60;14.00;;;0.20;99.90;;;;;;5061161;28;20071;-91
2023/11/23 04:21:52;;;;;;;24.80;15.50;;;0.10;99.90;;;;;;5047046;28;20026;-92
2023/11/23 04:24:18;;;;;;;25.08;14.88;;;0.10;99.90;;;;;;5050131;28;20048;-92
2023/11/23 04:26:44;;;;;;;26.73;15.88;;;0.10;99.90;;;;;;5061479;28;20113;-91
2023/11/23 04:29:10;;;;;;;23.23;15.23;;;0.10;99.90;;;;;;5060894;28;20029;-91
2023/11/23 04:31:36;;;;;;;23.42;14.45;;;0.10;99.90;;;;;;5043077;28;20025;-91
2023/11/23 04:34:02;;;;;;;24.27;15.55;;;0.10;99.90;;;;;;5061074;28;20021;-92
2023/11/23 04:36:30;;;;;;;26.70;15.90;;;0.10;99.90;;;;;;5060183;28;20049;-92
2023/11/23 04:38:58;;;;;;;22.75;16.08;;;0.10;99.90;;;;;;5043380;28;20017;-92
2023/11/23 04:41:24;;;;;;;25.27;17.08;;;0.10;99.90;;;;;;5061355;28;20107;-91
2023/11/23 04:43:50;;;;;;;28.40;15.57;;;0.10;99.90;;;;;;5061588;28;20101;-93
2023/11/23 04:46:16;;;;;;;24.15;15.55;;;0.10;99.90;;;;;;5045968;28;20040;-93
2023/11/23 04:48:42;;;;;;;26.55;16.50;;;0.10;99.90;;;;;;5043497;28;20025;-92
2023/11/23 04:51:07;;;;;;;27.65;16.55;;;0.10;99.90;;;;;;5060300;28;20035;-92
2023/11/23 04:53:33;;;;;;;23.15;15.10;;;0.10;99.90;;;;;;5042675;28;20108;-91
2023/11/23 04:55:59;;;;;;;23.77;14.73;;;0.10;99.90;;;;;;5061793;28;20084;-93
2023/11/23 04:58:26;;;;;;;23.08;13.77;;;0.20;99.90;;;;;;5053272;28;20101;-93
2023/11/23 05:00:51;;;;;;;22.27;14.82;;;0.10;99.90;;;;;;5044915;28;20084;-91
2023/11/23 05:03:18;;;;;;;23.10;14.57;;;0.20;99.90;;;;;;5052711;28;20041;-93
2023/11/23 05:05:43;;;;;;;22.25;15.50;;;0.10;99.90;;;;;;5035530;28;20112;-91
2023/11/23 05:08:09;;;;;;;27.58;15.50;;;0.10;99.90;;;;;;5050624;28;20080;-91
2023/11/23 05:10:35;;;;;;;21.70;13.68;;;0.10;99.90;;;;;;5033020;28;20638;-93
2023/11/23 05:13:01;;;;;;;24.40;15.73;;;0.10;99.90;;;;;;5044437;28;20025;-93
2023/11/23 05:15:26;;;;;;;24.90;15.65;;;0.10;99.90;;;;;;5061337;28;20028;-91
2023/11/23 05:17:52;;;;;;;23.45;14.45;;;0.10;99.90;;;;;;5060674;28;20027;-92
2023/11/23 05:20:22;;;;;;;22.80;14.40;;;0.20;99.90;;;;;;5064558;28;20031;-95
2023/11/23 05:22:48;;;;;;;24.50;15.70;;;0.10;99.90;;;;;;5053727;28;20529;-91
2023/11/23 05:25:14;;;;;;;25.10;15.05;;;0.10;99.90;;;;;;5046843;28;20033;-92
2023/11/23 05:27:40;;;;;;;32.20;17.83;;;0.20;99.90;;;;;;5031165;28;20029;-92
2023/11/23 05:30:12;;;;;;;25.17;16.40;;;0.20;99.90;;;;;;5059649;28;20705;-90
2023/11/23 05:32:40;;;;;;;24.08;15.43;;;0.10;99.90;;;;;;5058855;28;20020;-90
2023/11/23 05:35:12;;;;;;;24.63;16.83;;;0.10;99.90;;;;;;5059479;28;20365;-91
2023/11/23 05:37:40;;;;;;;26.20;16.17;;;0.10;99.90;;;;;;5031666;28;20083;-92
2023/11/23 05:40:16;;;;;;;26.60;16.08;;;0.10;99.90;;;;;;5062144;28;20084;-91
2023/11/23 05:42:41;;;;;;;24.88;14.50;;;0.00;99.90;;;;;;5034447;28;20285;-89
2023/11/23 05:45:08;;;;;;;31.40;16.13;;;0.00;99.90;;;;;;5059046;28;20487;-91
2023/11/23 05:47:37;;;;;;;24.88;16.38;;;0.10;99.90;;;;;;5058709;28;20025;-91
2023/11/23 05:50:03;;;;;;;29.67;18.40;;;0.10;99.90;;;;;;5037973;28;20029;-92
2023/11/23 05:52:30;;;;;;;25.88;15.73;;;0.20;99.90;;;;;;5059268;28;20021;-90
2023/11/23 05:54:56;;;;;;;26.92;16.05;;;0.30;99.90;;;;;;5038593;28;20060;-89
2023/11/23 05:57:23;;;;;;;29.45;16.10;;;0.30;99.90;;;;;;5057298;28;20021;-90
2023/11/23 05:59:49;;;;;;;25.88;15.57;;;0.40;99.90;;;;;;5059937;28;20036;-93
2023/11/23 06:02:15;;;;;;;28.05;16.90;;;0.40;99.90;;;;;;5057138;28;20479;-91
2023/11/23 06:04:46;;;;;;;28.48;16.25;;;0.40;99.90;;;;;;5057390;28;20021;-91
2023/11/23 06:07:12;;;;;;;29.30;15.90;;;0.50;99.90;;;;;;5056996;28;20096;-90
2023/11/23 06:09:38;;;;;;;30.60;18.23;;;0.50;99.90;;;;;;5057407;28;20036;-91
2023/11/23 06:12:05;;;;;;;26.48;15.52;;;0.50;99.90;;;;;;5056883;28;20025;-90
2023/11/23 06:14:34;;;;;;;24.42;14.48;;;0.60;99.90;;;;;;5032344;28;20028;-91
2023/11/23 06:17:00;;;;;;;28.83;16.23;;;0.50;99.90;;;;;;5035080;28;20041;-91
2023/11/23 06:19:32;;;;;;;30.10;16.55;;;0.60;99.90;;;;;;5056837;28;20099;-92
2023/11/23 06:22:00;;;;;;;28.67;16.67;;;0.60;99.90;;;;;;5044160;28;20029;-89
2023/11/23 06:24:26;;;;;;;29.38;15.55;;;0.60;99.90;;;;;;5058364;28;20033;-92
2023/11/23 06:26:52;;;;;;;23.80;13.68;;;0.70;99.90;;;;;;5047226;28;20029;-91
2023/11/23 06:29:18;;;;;;;28.30;15.73;;;0.70;99.90;;;;;;5040625;28;20044;-90
2023/11/23 06:31:44;;;;;;;23.27;16.55;;;0.70;99.90;;;;;;5061472;28;20101;-90
2023/11/23 06:34:10;;;;;;;22.98;14.32;;;0.70;99.90;;;;;;5062542;28;20088;-91
2023/11/23 06:36:38;;;;;;;22.83;16.33;;;0.70;99.90;;;;;;5066870;28;20033;-94
2023/11/23 06:39:09;;;;;;;44.47;30.23;;;0.70;99.90;;;;;;5054700;28;20009;-92
2023/11/23 06:41:35;;;;;;;27.88;16.63;;;0.70;99.90;;;;;;5069954;28;20056;-91
2023/11/23 06:44:00;;;;;;;34.25;23.13;;;0.70;99.90;;;;;;5062707;28;20020;-91
2023/11/23 06:46:26;;;;;;;29.42;15.40;;;0.80;99.90;;;;;;5064636;28;20025;-92
2023/11/23 06:48:52;;;;;;;24.95;15.25;;;0.80;99.90;;;;;;5049200;28;20025;-92
2023/11/23 06:51:18;;;;;;;22.65;13.90;;;0.70;99.90;;;;;;5049764;28;20024;-90
2023/11/23 06:53:45;;;;;;;42.17;20.20;;;0.80;99.90;;;;;;5061731;28;20082;-90
2023/11/23 06:56:15;;;;;;;22.98;15.27;;;1.10;99.90;;;;;;5061750;28;20036;-90
2023/11/23 06:58:46;;;;;;;22.10;13.45;;;1.00;99.90;;;;;;5042159;28;20664;-92
2023/11/23 07:01:12;;;;;;;22.85;14.95;;;0.90;99.90;;;;;;5055429;28;20024;-91
2023/11/23 07:03:39;;;;;;;26.15;16.38;;;0.90;99.90;;;;;;5056873;28;20021;-91
2023/11/23 07:06:05;;;;;;;24.85;15.05;;;0.90;99.90;;;;;;5058675;28;20032;-91
2023/11/23 07:08:35;;;;;;;24.63;14.73;;;1.00;99.90;;;;;;5030374;28;20108;-90
2023/11/23 07:11:04;;;;;;;25.27;15.93;;;1.00;99.90;;;;;;5060416;28;20055;-90
2023/11/23 07:13:31;;;;;;;24.67;14.23;;;1.10;99.90;;;;;;5062831;28;20028;-89
2023/11/23 07:15:59;;;;;;;30.17;17.20;;;1.10;99.90;;;;;;5043912;28;20021;-91
2023/11/23 07:18:25;;;;;;;21.77;14.55;;;1.10;99.90;;;;;;5049016;28;20009;-92
2023/11/23 07:20:53;;;;;;;23.98;13.45;;;1.20;99.90;;;;;;5062508;28;20052;-90
2023/11/23 07:23:19;;;;;;;23.77;14.55;;;1.20;99.90;;;;;;5059073;28;20017;-90
2023/11/23 07:25:45;;;;;;;27.50;17.33;;;1.30;99.90;;;;;;5057072;28;20378;-90
2023/11/23 07:28:11;;;;;;;29.35;16.90;;;1.30;99.90;;;;;;5061097;28;20087;-90
2023/11/23 07:30:43;;;;;;;26.88;15.43;;;1.40;99.90;;;;;;5044243;28;20021;-90
2023/11/23 07:33:10;;;;;;;27.38;16.88;;;1.50;99.90;;;;;;5062065;28;20044;-90
2023/11/23 07:35:36;;;;;;;26.20;15.55;;;1.50;99.90;;;;;;5052765;28;20415;-90
2023/11/23 07:38:05;;;;;;;25.13;15.48;;;1.50;99.90;;;;;;5043661;28;20025;-92
2023/11/23 07:40:31;;;;;;;26.17;16.15;;;1.60;99.90;;;;;;5054833;28;20029;-90
2023/11/23 07:42:57;;;;;;;27.50;16.08;;;1.70;99.90;;;;;;5060615;28;20029;-91
2023/11/23 07:45:23;;;;;;;26.30;16.58;;;1.80;99.90;;;;;;5062337;28;20028;-90
2023/11/23 07:47:49;;;;;;;30.88;17.80;;;1.80;99.90;;;;;;5063693;28;20095;-90
2023/11/23 07:50:17;;;;;;;32.35;16.73;;;1.80;99.90;;;;;;5041316;28;20044;-89
2023/11/23 07:52:46;;;;;;;28.52;16.98;;;1.80;99.90;;;;;;5057323;28;20021;-91
2023/11/23 07:55:15;;;;;;;28.85;16.95;;;1.80;99.90;;;;;;5037212;28;20093;-90
2023/11/23 07:57:43;;;;;;;23.27;13.93;;;1.90;99.90;;;;;;5057424;28;20021;-92
2023/11/23 08:00:09;;;;;;;25.23;14.23;;;1.90;99.90;;;;;;5050258;28;20081;-91
2023/11/23 08:02:34;;;;;;;28.35;15.90;;;2.00;99.90;;;;;;5060712;28;20067;-92
2023/11/23 08:05:00;;;;;;;28.10;15.95;;;2.00;99.90;;;;;;5043933;28;20037;-91
2023/11/23 08:07:26;;;;;;;28.05;15.20;;;2.00;99.90;;;;;;5059905;28;20025;-90
2023/11/23 08:09:52;;;;;;;28.73;14.68;;;2.10;99.90;;;;;;5064057;28;20009;-92
2023/11/23 08:12:18;;;;;;;22.20;13.95;;;2.10;99.90;;;;;;5064997;28;20017;-92
2023/11/23 08:14:45;;;;;;;25.90;15.15;;;2.10;99.90;;;;;;5063366;28;20036;-90
2023/11/23 08:17:11;;;;;;;21.88;14.50;;;2.20;99.90;;;;;;5050339;28;20059;-90
2023/11/23 08:19:38;;;;;;;22.48;15.10;;;2.10;99.90;;;;;;5060767;28;20094;-91
2023/11/23 08:22:07;;;;;;;20.20;12.50;;;2.10;99.90;;;;;;5040888;28;20028;-90
2023/11/23 08:24:33;;;;;;;21.70;13.30;;;2.20;99.90;;;;;;5061703;28;20033;-90
2023/11/23 08:26:59;;;;;;;135.65;49.95;;;2.40;99.90;;;;;;5062649;28;20029;-90
2023/11/23 08:29:28;;;;;;;53.63;21.08;;;2.60;99.90;;;;;;5063400;28;20106;-86
2023/11/23 08:31:53;;;;;;;24.80;12.93;;;2.60;99.90;;;;;;5057768;28;20027;-86
2023/11/23 08:34:19;;;;;;;18.60;10.80;;;2.60;99.90;;;;;;5044270;28;20101;-88
2023/11/23 08:36:45;;;;;;;405.08;82.03;;;2.70;99.90;;;;;;5052569;28;20029;-88
2023/11/23 08:39:13;;;;;;;40.38;16.25;;;2.70;99.90;;;;;;5055180;28;20018;-89
2023/11/23 08:41:39;;;;;;;16.15;10.40;;;2.80;99.00;;;;;;5041165;28;20029;-89
2023/11/23 08:44:05;;;;;;;18.63;10.40;;;2.80;99.10;;;;;;5059235;28;20024;-85
2023/11/23 08:46:33;;;;;;;16.92;10.23;;;2.80;99.90;;;;;;5058933;28;20025;-88
2023/11/23 08:49:00;;;;;;;18.38;11.40;;;2.70;99.70;;;;;;5060305;28;20033;-90
2023/11/23 08:51:25;;;;;;;21.98;12.35;;;2.70;99.90;;;;;;5059253;28;20033;-88
2023/11/23 08:53:51;;;;;;;18.55;11.25;;;2.60;99.90;;;;;;5059895;28;20070;-91
2023/11/23 08:56:33;;;;;;;17.90;10.93;;;2.60;99.90;;;;;;5052466;28;20036;-89
2023/11/23 08:58:59;;;;;;;19.90;11.73;;;2.60;99.90;;;;;;5061331;28;20021;-90
2023/11/23 09:01:26;;;;;;;17.50;10.73;;;2.70;99.90;;;;;;5057628;28;20032;-90
2023/11/23 09:03:52;;;;;;;19.50;11.75;;;2.70;99.90;;;;;;5057632;28;20025;-88
2023/11/23 09:06:18;;;;;;;21.70;12.82;;;2.70;99.90;;;;;;5039969;28;20144;-90
2023/11/23 09:08:44;;;;;;;19.30;13.20;;;2.80;99.90;;;;;;5058824;28;20035;-90
2023/11/23 09:11:11;;;;;;;18.42;11.27;;;2.80;99.90;;;;;;5052691;28;20032;-90
2023/11/23 09:13:37;;;;;;;19.88;11.40;;;2.90;99.90;;;;;;5041688;28;20017;-90
2023/11/23 09:16:03;;;;;;;19.83;10.23;;;2.90;99.60;;;;;;5059719;28;20055;-90
2023/11/23 09:18:30;;;;;;;15.00;9.98;;;3.00;98.40;;;;;;5059705;28;20076;-89
2023/11/23 09:20:56;;;;;;;14.38;9.57;;;3.10;98.60;;;;;;5065188;28;20098;-90
2023/11/23 09:23:22;;;;;;;15.25;10.65;;;3.10;97.70;;;;;;5063301;28;20025;-90
2023/11/23 09:25:48;;;;;;;10.52;8.50;;;3.20;96.50;;;;;;5045613;28;20100;-91
2023/11/23 09:28:14;;;;;;;13.52;9.25;;;3.20;95.60;;;;;;5042924;28;20025;-90
2023/11/23 09:30:45;;;;;;;13.35;8.98;;;3.30;95.60;;;;;;5036047;28;20238;-90
2023/11/23 09:33:11;;;;;;;13.82;8.95;;;3.30;95.60;;;;;;5040390;28;20025;-90
2023/11/23 09:35:38;;;;;;;12.95;8.35;;;3.40;94.70;;;;;;5039394;28;20028;-89
2023/11/23 09:38:04;;;;;;;16.15;8.80;;;3.40;94.00;;;;;;5058823;28;20037;-89
2023/11/23 09:40:33;;;;;;;15.25;8.75;;;3.40;93.80;;;;;;5058246;28;20154;-89
2023/11/23 09:42:59;;;;;;;11.50;8.25;;;3.40;93.50;;;;;;5058078;28;20032;-90
2023/11/23 09:45:31;;;;;;;12.20;8.35;;;3.40;94.70;;;;;;5058620;28;20025;-90
2023/11/23 09:47:59;;;;;;;14.48;9.93;;;3.50;95.00;;;;;;5056983;28;20024;-87
2023/11/23 09:50:30;;;;;;;14.40;9.05;;;3.50;95.20;;;;;;5039220;28;20347;-90
2023/11/23 09:52:59;;;;;;;15.13;9.80;;;3.50;95.70;;;;;;5039742;28;20518;-90
2023/11/23 09:55:29;;;;;;;13.27;9.13;;;3.50;95.20;;;;;;5060814;28;20059;-88
2023/11/23 09:57:55;;;;;;;14.00;9.27;;;3.50;95.30;;;;;;5059185;28;20025;-90
2023/11/23 10:00:21;;;;;;;15.07;9.02;;;3.50;94.50;;;;;;5044420;28;20028;-90
2023/11/23 10:02:55;;;;;;;13.85;9.25;;;3.60;92.80;;;;;;5063742;28;20029;-89
2023/11/23 10:05:26;;;;;;;15.95;9.00;;;3.70;95.00;;;;;;5041413;28;20032;-92
2023/11/23 10:07:54;;;;;;;11.10;8.57;;;3.70;94.30;;;;;;5047017;28;20036;-91
2023/11/23 10:10:20;;;;;;;13.73;9.70;;;3.70;94.20;;;;;;5044238;28;20029;-89
2023/11/23 10:12:46;;;;;;;13.82;8.50;;;3.60;93.70;;;;;;5057816;28;20340;-90
2023/11/23 10:15:12;;;;;;;11.43;8.88;;;3.70;93.30;;;;;;5040095;28;20025;-91
2023/11/23 10:17:41;;;;;;;15.77;10.35;;;3.70;94.40;;;;;;5031470;28;20085;-90
2023/11/23 10:20:15;;;;;;;14.70;9.45;;;3.60;94.00;;;;;;5057414;28;20523;-90
2023/11/23 10:22:49;;;;;;;16.95;9.57;;;3.70;94.70;;;;;;5056615;28;20037;-90
2023/11/23 10:25:37;;;;;;;;;;;3.70;95.10;;;;;;5040667;28;20078;-89
2023/11/23 10:28:03;;;;;;;12.20;8.80;;;3.70;94.10;;;;;;5050886;28;19987;-90
2023/11/23 10:30:30;;;;;;;20.83;10.65;;;3.70;93.60;;;;;;5039497;28;20035;-91
2023/11/23 10:32:57;;;;;;;16.13;10.88;;;3.70;93.90;;;;;;5039636;28;20021;-90
2023/11/23 10:35:28;;;;;;;15.98;9.23;;;3.70;93.70;;;;;;5040606;28;20021;-89
2023/11/23 10:37:57;;;;;;;16.58;10.23;;;3.80;94.20;;;;;;5039646;28;20061;-89
2023/11/23 10:40:26;;;;;;;14.85;9.85;;;3.80;94.20;;;;;;5057249;28;20556;-91
2023/11/23 10:43:01;;;;;;;18.92;11.00;;;3.90;95.50;;;;;;5038876;28;20029;-91
2023/11/23 10:45:28;;;;;;;17.55;10.05;;;3.90;95.30;;;;;;5039394;28;20025;-92
2023/11/23 10:47:58;;;;;;;15.43;10.85;;;3.90;95.50;;;;;;5057726;28;20398;-89
2023/11/23 10:50:27;;;;;;;17.75;10.93;;;3.90;95.10;;;;;;5058357;28;20625;-90
2023/11/23 10:52:57;;;;;;;14.35;10.23;;;4.00;95.00;;;;;;5041197;28;20025;-91
2023/11/23 10:55:24;;;;;;;16.67;9.35;;;4.10;95.40;;;;;;5038835;28;20028;-90
2023/11/23 10:58:05;;;;;;;13.65;9.15;;;4.00;93.80;;;;;;5052571;28;20487;-91
2023/11/23 11:00:31;;;;;;;13.23;8.43;;;4.00;93.20;;;;;;5054930;28;20030;-92
2023/11/23 11:03:04;;;;;;;12.02;9.07;;;4.00;93.60;;;;;;5039527;28;20025;-87
2023/11/23 11:05:31;;;;;;;18.23;11.52;;;4.00;94.00;;;;;;5057890;28;20029;-88
2023/11/23 11:08:07;;;;;;;13.60;9.45;;;4.10;94.40;;;;;;5057540;28;20033;-89
2023/11/23 11:10:55;;;;;;;16.42;9.25;;;4.20;93.70;;;;;;5039940;28;20092;-91
2023/11/23 11:13:24;;;;;;;13.68;8.73;;;4.10;94.10;;;;;;5057394;28;20103;-90
2023/11/23 11:15:56;;;;;;;14.55;9.20;;;4.20;92.80;;;;;;5040263;28;20041;-88
2023/11/23 11:18:27;;;;;;;10.88;7.10;;;4.20;93.70;;;;;;5050393;28;20020;-91
2023/11/23 11:21:06;;;;;;;12.48;8.70;;;4.30;91.70;;;;;;5039164;28;20028;-88
2023/11/23 11:23:46;;;;;;;12.35;9.07;;;4.30;91.30;;;;;;5056744;28;20074;-89
2023/11/23 11:26:19;;;;;;;17.77;10.63;;;4.30;91.10;;;;;;5057107;28;20024;-90
2023/11/23 11:28:59;;;;;;;12.75;8.10;;;4.30;91.00;;;;;;5056756;28;20602;-90
2023/11/23 11:31:41;;;;;;;12.25;8.75;;;4.30;91.10;;;;;;5051635;28;20055;-90
2023/11/23 11:34:26;;;;;;;10.82;8.30;;;4.40;91.30;;;;;;5057287;28;20021;-91
2023/11/23 11:37:05;;;;;;;12.57;7.78;;;4.40;90.90;;;;;;5057421;28;20033;-92
2023/11/23 11:39:42;;;;;;;10.15;7.47;;;4.40;91.50;;;;;;5056633;28;20036;-93
2023/11/23 11:42:15;;;;;;;11.48;8.32;;;4.40;90.80;;;;;;5057695;28;20498;-91
2023/11/23 11:44:51;;;;;;;13.13;8.70;;;4.40;91.10;;;;;;5031195;28;20040;-89
2023/11/23 11:47:31;;;;;;;11.45;8.68;;;4.40;91.00;;;;;;5055451;28;20120;-90
2023/11/23 11:49:59;;;;;;;9.95;7.40;;;4.40;92.00;;;;;;5055632;28;20059;-91
2023/11/23 11:52:26;;;;;;;14.05;7.80;;;4.40;91.00;;;;;;5056375;28;20541;-87
2023/11/23 11:54:51;;;;;;;10.23;7.68;;;4.50;92.00;;;;;;5056947;28;20217;-92
2023/11/23 11:57:19;;;;;;;12.10;8.80;;;4.60;92.30;;;;;;5057476;28;20108;-90
2023/11/23 11:59:48;;;;;;;10.13;7.13;;;4.60;91.20;;;;;;5061474;28;20484;-90
2023/11/23 12:02:19;;;;;;;12.38;8.32;;;4.60;90.00;;;;;;5061197;28;20311;-90
2023/11/23 12:04:57;;;;;;;14.27;8.57;;;4.60;90.20;;;;;;5062985;28;20021;-90
2023/11/23 12:07:29;;;;;;;9.73;7.18;;;4.60;91.00;;;;;;5045667;28;20074;-90
2023/11/23 12:10:21;;;;;;;10.07;7.43;;;4.70;89.60;;;;;;5064495;28;20029;-90
2023/11/23 12:12:55;;;;;;;7.85;6.53;;;4.70;89.80;;;;;;5062168;28;20017;-90
2023/11/23 12:15:23;;;;;;;;;;;4.80;89.60;;;;;;5043688;28;20074;-91
2023/11/23 12:17:56;;;;;;;13.15;7.35;;;4.80;90.00;;;;;;5043093;28;20337;-90
2023/11/23 12:20:35;;;;;;;10.27;7.65;;;4.80;90.40;;;;;;5058744;28;20031;-88
2023/11/23 12:23:49;;;;;;;12.02;8.73;;;4.80;91.10;;;;;;5053310;28;20629;-89
2023/11/23 12:26:22;;;;;;;10.65;7.18;;;4.80;90.80;;;;;;5038476;28;20029;-88
2023/11/23 12:28:50;;;;;;;10.45;7.63;;;4.90;91.30;;;;;;5041532;28;20033;-91
2023/11/23 12:31:17;;;;;;;;;;;4.90;91.50;;;;;;5059074;28;20490;-91
2023/11/23 12:33:44;;;;;;;10.38;8.18;;;4.90;91.60;;;;;;5042642;28;19905;-90
2023/11/23 12:36:12;;;;;;;12.95;8.65;;;4.90;91.10;;;;;;5043949;28;20481;-92
2023/11/23 12:38:51;;;;;;;13.38;9.65;;;4.90;91.80;;;;;;5040191;28;20025;-90
2023/11/23 12:41:32;;;;;;;15.20;8.40;;;5.00;93.00;;;;;;5057625;28;20033;-90
2023/11/23 12:44:03;;;;;;;16.35;9.30;;;5.10;93.70;;;;;;5025514;28;20399;-91